Time;durP1;ratioP1;P1;durP2;ratioP2;P2;SDS_P1;SDS_P2;PMS_P1;PMS_P2;Temp;Humidity;BMP_temperature;BMP_pressure;BME280_temperature;BME280_humidity;BME280_pressure;Samples;Min_cycle;Max_cycle;Signal;HPM_P1;HPM_P2
2021/07/06 00:02:45;;;;;;;2.95;1.45;;;;;;;17.71;100.00;100507.50;6273067;28;20055;-74
2021/07/06 00:05:46;;;;;;;5.45;1.90;;;;;;;17.68;100.00;100513.09;6272310;28;20053;-74
2021/07/06 00:08:48;;;;;;;4.72;1.67;;;;;;;17.71;100.00;100510.16;6272557;28;20053;-74
2021/07/06 00:11:49;;;;;;;3.42;1.52;;;;;;;17.73;100.00;100522.38;6272273;28;20049;-74
2021/07/06 00:14:51;;;;;;;3.17;1.90;;;;;;;17.70;100.00;100506.66;6272521;28;20041;-74
2021/07/06 00:17:55;;;;;;;2.60;1.70;;;;;;;17.70;100.00;100503.16;6272555;28;20053;-74
2021/07/06 00:20:59;;;;;;;5.10;1.50;;;;;;;17.72;100.00;100504.72;6271841;28;20045;-74
2021/07/06 00:24:00;;;;;;;3.63;2.15;;;;;;;17.74;100.00;100491.31;6272052;28;20057;-74
2021/07/06 00:27:02;;;;;;;8.40;2.33;;;;;;;17.76;100.00;100494.72;6272547;28;20060;-74
2021/07/06 00:30:05;;;;;;;5.75;1.88;;;;;;;17.75;100.00;100488.53;6272197;28;20090;-74
2021/07/06 00:33:07;;;;;;;6.03;1.70;;;;;;;17.75;100.00;100485.03;6272117;28;20048;-74
2021/07/06 00:36:10;;;;;;;2.28;1.40;;;;;;;17.78;100.00;100486.59;6271929;28;20412;-74
2021/07/06 00:39:11;;;;;;;3.78;1.70;;;;;;;17.80;100.00;100468.69;6271872;28;20443;-74
2021/07/06 00:42:12;;;;;;;1.88;1.58;;;;;;;17.79;100.00;100469.66;6272095;28;20060;-74
2021/07/06 00:45:16;;;;;;;2.50;1.90;;;;;;;17.78;100.00;100473.31;6271699;28;20049;-74
2021/07/06 00:48:18;;;;;;;5.70;1.95;;;;;;;17.77;100.00;100466.31;6272015;28;20049;-74
2021/07/06 00:51:19;;;;;;;10.05;2.53;;;;;;;17.71;100.00;100470.28;6271628;28;20048;-74
2021/07/06 00:54:21;;;;;;;4.63;2.08;;;;;;;17.70;100.00;100468.63;6271922;28;20045;-73
2021/07/06 00:57:29;;;;;;;4.78;2.00;;;;;;;17.65;100.00;100468.19;6271537;28;20049;-74
2021/07/06 01:00:31;;;;;;;3.10;1.88;;;;;;;17.62;100.00;100466.66;6271829;28;20130;-74
2021/07/06 01:03:34;;;;;;;5.07;2.13;;;;;;;17.56;100.00;100469.81;6271433;28;20175;-74
2021/07/06 01:06:35;;;;;;;5.75;2.03;;;;;;;17.59;100.00;100466.91;6271261;28;20614;-74
2021/07/06 01:09:36;;;;;;;5.90;2.20;;;;;;;17.62;100.00;100461.34;6271302;28;20045;-74
2021/07/06 01:12:38;;;;;;;4.10;2.15;;;;;;;17.60;100.00;100457.94;6271345;28;20052;-73
2021/07/06 01:15:40;;;;;;;3.83;2.42;;;;;;;17.62;100.00;100456.03;6271385;28;20041;-74
2021/07/06 01:18:43;;;;;;;6.68;2.40;;;;;;;17.63;100.00;100452.38;6271314;28;20044;-73
2021/07/06 01:21:44;;;;;;;3.95;2.00;;;;;;;17.65;100.00;100442.44;6271475;28;20052;-73
2021/07/06 01:24:47;;;;;;;3.67;2.00;;;;;;;17.65;100.00;100433.63;6271171;28;20048;-73
2021/07/06 01:27:48;;;;;;;6.78;1.92;;;;;;;17.62;100.00;100439.19;6271409;28;20049;-73
2021/07/06 01:30:50;;;;;;;4.47;2.00;;;;;;;17.64;100.00;100429.28;6270977;28;20045;-73
2021/07/06 01:33:56;;;;;;;7.97;1.92;;;;;;;17.62;100.00;100432.09;6273376;28;20045;-73
2021/07/06 01:36:57;;;;;;;5.55;2.22;;;;;;;17.63;100.00;100436.44;6276245;28;20053;-73
2021/07/06 01:40:00;;;;;;;4.55;2.10;;;;;;;17.66;100.00;100430.81;6276319;28;20519;-73
2021/07/06 01:43:02;;;;;;;3.70;2.00;;;;;;;17.66;100.00;100435.31;6276326;28;20045;-73
2021/07/06 01:46:03;;;;;;;4.53;1.95;;;;;;;17.66;100.00;100436.13;6275755;28;20049;-73
2021/07/06 01:49:04;;;;;;;6.15;2.00;;;;;;;17.66;100.00;100430.81;6276147;28;20053;-73
2021/07/06 01:52:06;;;;;;;1.73;1.63;;;;;;;17.63;100.00;100428.47;6275974;28;20515;-73
2021/07/06 01:55:11;;;;;;;5.60;2.45;;;;;;;17.62;100.00;100425.91;6277877;28;20063;-73
2021/07/06 01:58:14;;;;;;;3.25;1.98;;;;;;;17.58;100.00;100419.22;6279253;28;20055;-73
2021/07/06 02:01:16;;;;;;;5.20;2.08;;;;;;;17.57;100.00;100417.50;6278586;28;20056;-73
2021/07/06 02:04:17;;;;;;;3.83;2.00;;;;;;;17.62;100.00;100417.94;6278526;28;20053;-73
2021/07/06 02:07:18;;;;;;;4.93;2.17;;;;;;;17.52;100.00;100412.59;6278710;28;20049;-73
2021/07/06 02:10:22;;;;;;;4.03;1.80;;;;;;;17.54;100.00;100423.13;6278841;28;20045;-73
2021/07/06 02:13:25;;;;;;;6.80;2.05;;;;;;;17.48;100.00;100420.00;6278412;28;20044;-73
2021/07/06 02:16:27;;;;;;;12.68;2.55;;;;;;;17.48;100.00;100403.22;6275331;28;20056;-74
2021/07/06 02:19:29;;;;;;;3.42;1.80;;;;;;;17.46;100.00;100402.53;6275192;28;20056;-74
2021/07/06 02:22:30;;;;;;;5.00;2.20;;;;;;;17.46;100.00;100407.84;6275455;28;20053;-74
2021/07/06 02:25:33;;;;;;;5.70;2.08;;;;;;;17.48;100.00;100400.56;6274866;28;20052;-74
2021/07/06 02:28:36;;;;;;;5.90;2.10;;;;;;;17.47;100.00;100401.53;6275299;28;20052;-73
2021/07/06 02:31:37;;;;;;;3.45;1.95;;;;;;;17.43;100.00;100400.13;6274882;28;20048;-74
2021/07/06 02:34:39;;;;;;;7.05;1.95;;;;;;;17.40;100.00;100393.28;6275119;28;20049;-74
2021/07/06 02:37:40;;;;;;;6.28;2.05;;;;;;;17.40;100.00;100387.13;6274719;28;20053;-73
2021/07/06 02:40:43;;;;;;;6.43;2.22;;;;;;;17.37;100.00;100390.88;6274860;28;20052;-74
2021/07/06 02:43:45;;;;;;;1.70;1.60;;;;;;;17.39;100.00;100386.25;6274702;28;20049;-73
2021/07/06 02:46:46;;;;;;;5.78;2.22;;;;;;;17.37;100.00;100387.38;6273641;28;20056;-73
2021/07/06 02:49:47;;;;;;;5.53;2.17;;;;;;;17.37;100.00;100384.75;6274569;28;20056;-74
2021/07/06 02:52:49;;;;;;;4.05;2.10;;;;;;;17.37;100.00;100377.59;6274475;28;20052;-74
2021/07/06 02:55:52;;;;;;;6.38;1.83;;;;;;;17.35;100.00;100371.59;6274425;28;20084;-73
2021/07/06 02:58:54;;;;;;;6.32;2.22;;;;;;;17.33;100.00;100386.81;6274299;28;20056;-74
2021/07/06 03:01:55;;;;;;;7.20;2.03;;;;;;;17.35;100.00;100379.56;6274382;28;20045;-74
2021/07/06 03:04:56;;;;;;;3.60;1.83;;;;;;;17.35;100.00;100389.31;6274039;28;20048;-73
2021/07/06 03:07:58;;;;;;;6.32;2.25;;;;;;;17.32;100.00;100390.44;6274327;28;20056;-73
2021/07/06 03:11:01;;;;;;;4.43;1.85;;;;;;;17.32;100.00;100385.13;6267873;28;20053;-73
2021/07/06 03:14:03;;;;;;;3.05;1.95;;;;;;;17.31;100.00;100394.09;6239372;28;20053;-72
2021/07/06 03:17:04;;;;;;;2.60;1.90;;;;;;;17.29;100.00;100405.81;6237369;28;20052;-74
2021/07/06 03:20:08;;;;;;;5.28;2.17;;;;;;;17.27;100.00;100400.63;6245829;28;20044;-74
2021/07/06 03:23:09;;;;;;;5.47;1.80;;;;;;;17.28;100.00;100409.44;6229463;28;20050;-74
2021/07/06 03:26:12;;;;;;;4.20;2.38;;;;;;;17.27;100.00;100405.13;6242971;28;20057;-74
2021/07/06 03:29:13;;;;;;;3.47;2.15;;;;;;;17.25;100.00;100394.59;6248708;28;20060;-74
2021/07/06 03:32:15;;;;;;;2.20;2.00;;;;;;;17.29;100.00;100387.22;6237357;28;20505;-74
2021/07/06 03:35:17;;;;;;;5.13;1.90;;;;;;;17.28;100.00;100391.69;6229392;28;20053;-73
2021/07/06 03:38:18;;;;;;;3.83;2.10;;;;;;;17.27;100.00;100397.97;6224290;28;20524;-74
2021/07/06 03:41:21;;;;;;;4.65;2.03;;;;;;;17.29;100.00;100393.38;6234444;28;20049;-71
2021/07/06 03:44:22;;;;;;;1.77;1.67;;;;;;;17.30;100.00;100388.88;6229997;28;20054;-73
2021/07/06 03:47:24;;;;;;;3.25;1.67;;;;;;;17.30;100.00;100381.75;6229413;28;20042;-73
2021/07/06 03:50:27;;;;;;;7.05;1.90;;;;;;;17.30;100.00;100388.88;6223714;28;20623;-73
2021/07/06 03:53:28;;;;;;;2.53;1.65;;;;;;;17.31;100.00;100380.81;6223922;28;20054;-73
2021/07/06 03:56:32;;;;;;;4.15;2.00;;;;;;;17.37;100.00;100385.56;6225582;28;20440;-73
2021/07/06 03:59:34;;;;;;;3.92;1.80;;;;;;;17.40;100.00;100380.00;6239830;28;20049;-73
2021/07/06 04:02:36;;;;;;;5.80;1.65;;;;;;;17.45;100.00;100376.94;6242385;28;20053;-73
2021/07/06 04:05:38;;;;;;;6.28;1.83;;;;;;;17.43;100.00;100376.22;6248044;28;20132;-73
2021/07/06 04:08:39;;;;;;;8.52;1.92;;;;;;;17.44;100.00;100368.13;6248003;28;20423;-73
2021/07/06 04:11:42;;;;;;;2.75;1.73;;;;;;;17.44;100.00;100353.97;6247727;28;20052;-73
2021/07/06 04:14:43;;;;;;;2.30;1.63;;;;;;;17.49;100.00;100355.28;6247909;28;20053;-74
2021/07/06 04:17:45;;;;;;;3.25;1.73;;;;;;;17.48;100.00;100350.09;6247657;28;20049;-73
2021/07/06 04:20:46;;;;;;;2.55;1.80;;;;;;;17.50;100.00;100354.28;6247964;28;20045;-73
2021/07/06 04:23:48;;;;;;;2.88;1.80;;;;;;;17.50;100.00;100348.97;6247543;28;20420;-73
2021/07/06 04:26:50;;;;;;;4.97;1.58;;;;;;;17.52;100.00;100348.00;6247578;28;20049;-74
2021/07/06 04:29:52;;;;;;;3.25;1.73;;;;;;;17.53;100.00;100342.53;6247573;28;20053;-74
2021/07/06 04:32:53;;;;;;;3.13;1.83;;;;;;;17.59;100.00;100342.00;6247315;28;20049;-73
2021/07/06 04:35:55;;;;;;;10.73;2.13;;;;;;;17.65;100.00;100346.78;6247331;28;20049;-73
2021/07/06 04:38:58;;;;;;;2.45;1.50;;;;;;;17.73;100.00;100368.22;6247239;28;20046;-74
2021/07/06 04:42:01;;;;;;;2.85;1.70;;;;;;;17.83;100.00;100373.56;6246757;28;20077;-72
2021/07/06 04:45:02;;;;;;;5.15;1.52;;;;;;;17.90;100.00;100373.84;6247244;28;20072;-73
2021/07/06 04:48:04;;;;;;;8.80;1.65;;;;;;;17.95;100.00;100363.66;6247112;28;20056;-73
2021/07/06 04:51:07;;;;;;;2.33;1.38;;;;;;;17.98;100.00;100358.88;6247049;28;20041;-75
2021/07/06 04:54:09;;;;;;;5.60;1.23;;;;;;;18.07;100.00;100369.66;6246891;28;20049;-75
2021/07/06 04:57:12;;;;;;;5.88;1.20;;;;;;;18.03;100.00;100373.56;6246745;28;20072;-74
2021/07/06 05:00:14;;;;;;;2.10;1.05;;;;;;;18.09;100.00;100363.22;6247006;28;20061;-74
2021/07/06 05:03:16;;;;;;;1.75;1.15;;;;;;;18.09;100.00;100376.53;6246870;28;20045;-74
2021/07/06 05:06:18;;;;;;;5.95;1.52;;;;;;;18.10;100.00;100380.84;6247105;28;20052;-74
2021/07/06 05:09:19;;;;;;;4.65;1.42;;;;;;;18.14;100.00;100381.44;6245930;28;20045;-74
2021/07/06 05:12:22;;;;;;;1.85;1.17;;;;;;;18.14;100.00;100376.94;6287435;22;20045;-77
2021/07/06 05:15:24;;;;;;;6.05;1.20;;;;;;;18.12;100.00;100376.25;6271272;28;20488;-77
2021/07/06 05:18:25;;;;;;;8.05;1.00;;;;;;;18.14;100.00;100358.31;6270915;28;20053;-77
2021/07/06 05:21:26;;;;;;;7.05;1.40;;;;;;;18.11;100.00;100345.28;6271378;28;20048;-77
2021/07/06 05:24:28;;;;;;;0.90;0.90;;;;;;;18.10;100.00;100348.09;6271230;28;20049;-77
2021/07/06 05:27:30;;;;;;;2.45;1.20;;;;;;;18.10;100.00;100340.13;6271377;28;20056;-77
2021/07/06 05:30:32;;;;;;;3.30;1.30;;;;;;;18.12;100.00;100341.69;6271202;28;20049;-76
2021/07/06 05:33:33;;;;;;;4.53;1.33;;;;;;;18.08;100.00;100339.44;6271396;28;20056;-77
2021/07/06 05:36:34;;;;;;;2.90;1.20;;;;;;;18.12;100.00;100327.53;6270823;28;20041;-74
2021/07/06 05:39:36;;;;;;;1.10;1.00;;;;;;;18.15;100.00;100329.91;6271056;28;20048;-74
2021/07/06 05:42:40;;;;;;;3.08;1.40;;;;;;;18.09;100.00;100318.03;6271397;28;20049;-75
2021/07/06 05:45:41;;;;;;;3.92;1.55;;;;;;;18.07;100.00;100322.63;6270262;28;20079;-75
2021/07/06 05:48:43;;;;;;;3.22;1.10;;;;;;;18.16;100.00;100326.25;6270990;28;20049;-75
2021/07/06 05:51:44;;;;;;;4.65;1.30;;;;;;;18.11;100.00;100328.50;6270665;28;20048;-75
2021/07/06 05:54:45;;;;;;;9.85;4.65;;;;;;;18.10;100.00;100330.31;6271298;28;20049;-75
2021/07/06 05:57:48;;;;;;;3.75;2.40;;;;;;;18.22;100.00;100337.19;6270689;28;20052;-75
2021/07/06 06:00:49;;;;;;;3.47;1.40;;;;;;;18.22;100.00;100326.56;6271065;28;20056;-75
2021/07/06 06:03:51;;;;;;;4.78;1.92;;;;;;;18.33;100.00;100316.72;6270926;28;20056;-75
2021/07/06 06:06:52;;;;;;;5.38;1.30;;;;;;;18.29;100.00;100316.16;6270625;28;20464;-75
2021/07/06 06:09:53;;;;;;;3.08;1.10;;;;;;;18.40;100.00;100313.38;6270463;28;20076;-75
2021/07/06 06:12:56;;;;;;;2.80;1.27;;;;;;;18.43;100.00;100304.25;6270632;28;20045;-75
2021/07/06 06:15:57;;;;;;;1.98;1.35;;;;;;;18.48;100.00;100304.66;6270701;28;20060;-75
2021/07/06 06:18:59;;;;;;;2.67;1.20;;;;;;;18.48;100.00;100313.47;6271409;28;20045;-75
2021/07/06 06:22:00;;;;;;;3.30;1.33;;;;;;;18.65;100.00;100311.91;6275456;28;20047;-75
2021/07/06 06:25:03;;;;;;;7.95;1.95;;;;;;;18.77;100.00;100325.06;6275158;28;20079;-74
2021/07/06 06:28:07;;;;;;;4.80;1.52;;;;;;;18.93;100.00;100328.78;6275243;28;20063;-75
2021/07/06 06:31:09;;;;;;;10.82;1.50;;;;;;;18.99;100.00;100319.41;6275045;28;20041;-75
2021/07/06 06:34:10;;;;;;;3.30;1.33;;;;;;;19.06;100.00;100324.97;6275259;28;20428;-73
2021/07/06 06:37:11;;;;;;;2.55;1.58;;;;;;;19.12;100.00;100327.91;6274878;28;20049;-75
2021/07/06 06:40:14;;;;;;;2.95;1.75;;;;;;;19.19;100.00;100320.97;6275217;28;20072;-75
2021/07/06 06:43:16;;;;;;;6.07;1.67;;;;;;;19.26;100.00;100331.91;6275028;28;20056;-74
2021/07/06 06:46:19;;;;;;;3.40;1.40;;;;;;;19.33;100.00;100329.47;6274539;28;20067;-74
2021/07/06 06:49:21;;;;;;;4.35;1.23;;;;;;;19.29;100.00;100331.56;6274849;28;20056;-75
2021/07/06 06:52:23;;;;;;;3.13;1.50;;;;;;;19.30;100.00;100329.75;6274566;28;20418;-74
2021/07/06 06:55:24;;;;;;;1.95;1.25;;;;;;;19.44;100.00;100337.22;6274495;28;20075;-75
2021/07/06 06:58:26;;;;;;;5.57;0.95;;;;;;;19.57;100.00;100327.06;6274512;28;20052;-75
2021/07/06 07:01:28;;;;;;;3.95;1.50;;;;;;;19.71;100.00;100331.06;6274621;28;20132;-74
2021/07/06 07:04:29;;;;;;;6.35;1.40;;;;;;;19.83;100.00;100329.03;6274420;28;20057;-75
2021/07/06 07:07:31;;;;;;;4.55;1.10;;;;;;;19.85;100.00;100325.25;6274387;28;20053;-75
2021/07/06 07:10:32;;;;;;;3.25;1.40;;;;;;;20.12;100.00;100315.44;6273961;28;20492;-75
2021/07/06 07:13:35;;;;;;;5.43;1.30;;;;;;;20.26;100.00;100313.09;6274270;28;20045;-75
2021/07/06 07:16:36;;;;;;;1.60;1.30;;;;;;;20.41;98.52;100324.03;6273952;28;20059;-75
2021/07/06 07:19:38;;;;;;;1.85;1.02;;;;;;;20.30;97.75;100326.94;6273790;28;20047;-75
2021/07/06 07:22:40;;;;;;;9.07;1.48;;;;;;;20.31;99.63;100317.13;6272842;28;20667;-75
2021/07/06 07:25:42;;;;;;;2.83;1.02;;;;;;;20.44;97.77;100306.88;6271155;28;20041;-75
2021/07/06 07:28:44;;;;;;;6.90;1.17;;;;;;;20.57;100.00;100303.81;6270165;28;20056;-75
2021/07/06 07:31:46;;;;;;;3.05;1.50;;;;;;;20.65;100.00;100309.19;6271435;28;20048;-74
2021/07/06 07:34:47;;;;;;;1.92;0.93;;;;;;;20.70;98.67;100299.72;6270914;28;20049;-74
2021/07/06 07:37:49;;;;;;;3.53;1.30;;;;;;;20.84;99.07;100308.97;6271874;28;20045;-74
2021/07/06 07:40:51;;;;;;;5.43;1.60;;;;;;;20.75;97.44;100321.44;6270120;28;20496;-74
2021/07/06 07:43:54;;;;;;;4.03;1.20;;;;;;;20.67;98.95;100323.25;6262062;28;20056;-73
2021/07/06 07:46:56;;;;;;;4.50;1.33;;;;;;;20.59;100.00;100324.03;6255277;28;20059;-74
2021/07/06 07:49:57;;;;;;;1.85;1.40;;;;;;;20.58;100.00;100322.34;6254706;28;20053;-73
2021/07/06 07:52:58;;;;;;;8.15;1.50;;;;;;;20.70;100.00;100320.25;6272493;28;20052;-73
2021/07/06 07:56:00;;;;;;;4.82;1.35;;;;;;;20.68;99.39;100323.06;6271938;28;20052;-73
2021/07/06 07:59:02;;;;;;;4.70;1.20;;;;;;;20.67;99.92;100320.56;6271819;28;20072;-73
2021/07/06 08:02:05;;;;;;;3.75;1.30;;;;;;;20.77;100.00;100316.78;6272283;28;20067;-73
2021/07/06 08:05:07;;;;;;;5.30;1.33;;;;;;;20.77;95.29;100322.13;6271130;28;20495;-73
2021/07/06 08:08:08;;;;;;;6.05;1.20;;;;;;;20.87;96.08;100314.00;6271540;28;20049;-73
2021/07/06 08:11:10;;;;;;;2.72;1.30;;;;;;;20.92;98.06;100325.03;6271502;28;20064;-73
2021/07/06 08:14:12;;;;;;;4.30;1.30;;;;;;;21.19;96.65;100318.66;6272304;28;20056;-73
2021/07/06 08:17:14;;;;;;;3.42;1.42;;;;;;;21.21;90.97;100316.69;6271358;28;20051;-73
2021/07/06 08:20:15;;;;;;;2.65;1.17;;;;;;;21.41;88.64;100324.44;6272270;28;20500;-74
2021/07/06 08:23:16;;;;;;;3.40;1.67;;;;;;;21.50;89.42;100320.81;6271510;28;20049;-73
2021/07/06 08:26:18;;;;;;;3.97;1.40;;;;;;;21.51;92.32;100325.16;6271260;28;20045;-74
2021/07/06 08:29:23;;;;;;;6.60;1.40;;;;;;;21.57;85.57;100319.13;6259175;28;20056;-75
2021/07/06 08:32:25;;;;;;;3.08;1.08;;;;;;;21.58;87.60;100333.38;6271344;28;20047;-75
2021/07/06 08:35:26;;;;;;;2.78;1.33;;;;;;;21.87;83.94;100325.72;6270925;28;20511;-74
2021/07/06 08:38:27;;;;;;;1.65;1.35;;;;;;;21.85;86.33;100329.59;6270812;28;20052;-73
2021/07/06 08:41:29;;;;;;;3.20;1.13;;;;;;;21.88;82.46;100335.41;6271888;28;20507;-74
2021/07/06 08:44:32;;;;;;;5.13;1.27;;;;;;;21.75;85.87;100335.06;6270450;28;20052;-74
2021/07/06 08:47:33;;;;;;;4.38;1.40;;;;;;;21.84;84.38;100341.25;6270776;28;20045;-74
2021/07/06 08:50:35;;;;;;;6.10;1.25;;;;;;;22.07;82.92;100341.47;6271150;28;20048;-74
2021/07/06 08:53:36;;;;;;;3.50;1.25;;;;;;;21.98;83.00;100336.13;6271643;28;20662;-74
2021/07/06 08:56:37;;;;;;;4.00;1.30;;;;;;;22.01;84.84;100335.75;6270149;28;20048;-74
2021/07/06 08:59:42;;;;;;;4.63;1.30;;;;;;;21.94;82.74;100334.78;6270236;28;20175;-73
2021/07/06 09:02:55;;;;;;;2.65;1.02;;;;;;;22.03;81.07;100343.66;6271087;28;20139;-73
2021/07/06 09:06:03;;;;;;;1.80;1.23;;;;;;;22.06;80.91;100353.16;6270699;28;20053;-73
2021/07/06 09:09:18;;;;;;;3.13;1.30;;;;;;;22.06;82.23;100353.16;6270418;28;20534;-73
2021/07/06 09:12:20;;;;;;;4.00;1.25;;;;;;;22.16;83.00;100351.19;6271154;28;20397;-73
2021/07/06 09:15:26;;;;;;;1.70;1.27;;;;;;;22.31;80.12;100365.59;6271407;28;20056;-73
2021/07/06 09:18:30;;;;;;;4.35;0.98;;;;;;;22.24;76.42;100373.44;6271334;28;20056;-74
2021/07/06 09:21:32;;;;;;;4.68;0.80;;;;;;;22.04;77.40;100377.44;6271316;28;20049;-76
2021/07/06 09:24:33;;;;;;;1.08;0.80;;;;;;;21.80;77.76;100383.53;6271236;28;20056;-74
2021/07/06 09:27:36;;;;;;;9.35;0.90;;;;;;;21.67;80.41;100392.06;6269062;28;20458;-74
2021/07/06 09:30:42;;;;;;;1.58;0.82;;;;;;;21.48;79.20;100390.50;6269674;28;20052;-75
2021/07/06 09:33:57;;;;;;;0.85;0.70;;;;;;;21.27;80.67;100393.53;6270103;28;20045;-74
2021/07/06 09:36:58;;;;;;;1.42;0.80;;;;;;;21.26;82.15;100397.22;6271018;28;20053;-75
2021/07/06 09:40:01;;;;;;;1.27;0.80;;;;;;;21.15;83.13;100416.19;6271277;28;20488;-76
2021/07/06 09:43:18;;;;;;;4.60;0.90;;;;;;;21.08;82.47;100406.31;6271333;28;20045;-74
2021/07/06 09:46:24;;;;;;;3.33;0.90;;;;;;;20.81;86.44;100410.81;6271035;28;20059;-75
2021/07/06 09:49:28;;;;;;;5.28;0.80;;;;;;;20.61;88.07;100409.28;6270911;28;20140;-75
2021/07/06 09:52:35;;;;;;;3.63;0.75;;;;;;;20.44;91.25;100401.13;6271173;28;20041;-74
2021/07/06 09:55:38;;;;;;;1.80;1.00;;;;;;;20.26;92.29;100360.28;6274184;28;20419;-74
2021/07/06 09:58:54;;;;;;;2.35;0.70;;;;;;;20.15;95.47;100326.66;6276075;28;20049;-74
2021/07/06 10:01:59;;;;;;;1.60;1.15;;;;;;;20.02;98.46;100289.69;6275556;28;20049;-75
2021/07/06 10:05:05;;;;;;;2.92;1.20;;;;;;;19.94;100.00;100292.31;6275918;28;20053;-75
2021/07/06 10:08:06;;;;;;;3.25;1.10;;;;;;;19.86;100.00;100326.06;6275459;28;20045;-75
2021/07/06 10:11:08;;;;;;;3.30;0.98;;;;;;;19.80;99.61;100338.16;6275401;28;20424;-76
2021/07/06 10:14:10;;;;;;;2.28;1.10;;;;;;;19.90;100.00;100335.44;6275518;28;20045;-75
2021/07/06 10:17:14;;;;;;;1.13;0.77;;;;;;;19.87;100.00;100304.56;6275355;28;20055;-75
2021/07/06 10:20:20;;;;;;;3.10;1.30;;;;;;;19.84;100.00;100328.03;6275266;28;20049;-75
2021/07/06 10:23:22;;;;;;;3.55;1.00;;;;;;;19.81;100.00;100312.34;6275591;28;20133;-75
2021/07/06 10:26:26;;;;;;;2.97;1.10;;;;;;;19.83;100.00;100318.38;6275366;28;20049;-76
2021/07/06 10:29:32;;;;;;;3.45;0.90;;;;;;;19.76;100.00;100329.66;6275311;28;20500;-76
2021/07/06 10:32:39;;;;;;;1.65;0.88;;;;;;;19.69;100.00;100341.06;6275270;28;20056;-75
2021/07/06 10:35:49;;;;;;;4.30;1.25;;;;;;;19.74;100.00;100304.94;6275248;28;20048;-74
2021/07/06 10:38:56;;;;;;;;;;;;;;;19.67;100.00;100284.41;6275489;28;20397;-74
2021/07/06 10:41:58;;;;;;;2.67;0.90;;;;;;;19.70;100.00;100287.56;6274548;28;20346;-74
2021/07/06 10:45:13;;;;;;;4.88;1.30;;;;;;;19.61;100.00;100266.31;6274917;28;20064;-74
2021/07/06 10:48:41;;;;;;;4.68;0.80;;;;;;;19.69;100.00;100237.91;6274744;28;20057;-75
2021/07/06 10:51:53;;;;;;;7.43;1.02;;;;;;;19.53;100.00;100192.44;6273414;28;20056;-75
2021/07/06 10:54:54;;;;;;;3.40;1.15;;;;;;;19.46;100.00;100180.69;6274621;28;20649;-75
2021/07/06 10:57:56;;;;;;;1.75;0.70;;;;;;;19.34;100.00;100211.22;6274407;28;20045;-74
2021/07/06 11:00:57;;;;;;;1.35;0.73;;;;;;;19.23;100.00;100228.28;6273592;28;20049;-75
2021/07/06 11:04:00;;;;;;;2.67;0.80;;;;;;;19.23;100.00;100225.59;6274288;28;20049;-75
2021/07/06 11:07:01;;;;;;;0.82;0.70;;;;;;;19.26;100.00;100246.63;6272150;28;20055;-76
2021/07/06 11:10:05;;;;;;;2.25;1.10;;;;;;;19.32;100.00;100264.69;6274081;28;20052;-74
2021/07/06 11:13:27;;;;;;;2.80;1.20;;;;;;;19.41;100.00;100282.44;6261607;28;20041;-75
2021/07/06 11:16:36;;;;;;;0.93;0.60;;;;;;;19.61;100.00;100304.47;6273115;22;20042;-76
2021/07/06 11:19:41;;;;;;;4.13;0.90;;;;;;;19.59;100.00;100321.59;6239247;28;20064;-75
2021/07/06 11:22:43;;;;;;;4.25;0.90;;;;;;;19.63;100.00;100310.50;6249427;28;20566;-76
2021/07/06 11:25:47;;;;;;;1.17;0.88;;;;;;;19.62;100.00;100331.97;6248826;28;20042;-77
2021/07/06 11:28:50;;;;;;;1.15;0.75;;;;;;;19.63;100.00;100323.00;6249145;28;20136;-76
2021/07/06 11:32:13;;;;;;;4.10;0.93;;;;;;;19.58;100.00;100312.75;6245295;28;20199;-76
2021/07/06 11:35:15;;;;;;;2.05;0.75;;;;;;;19.57;100.00;100312.91;6224380;28;20398;-76
2021/07/06 11:38:18;;;;;;;3.58;1.20;;;;;;;19.54;100.00;100331.88;6224055;28;20054;-77
2021/07/06 11:41:22;;;;;;;2.72;0.95;;;;;;;19.49;100.00;100325.16;6224517;28;20046;-77
2021/07/06 11:44:23;;;;;;;2.13;0.85;;;;;;;19.49;100.00;100327.00;6224102;28;20046;-76
2021/07/06 11:47:26;;;;;;;1.42;0.70;;;;;;;19.46;100.00;100320.13;6223808;28;20417;-77
2021/07/06 11:50:30;;;;;;;0.90;0.80;;;;;;;19.38;100.00;100349.34;6238607;28;20049;-77
2021/07/06 11:53:33;;;;;;;1.05;0.95;;;;;;;19.48;100.00;100328.81;6248591;28;20046;-76
2021/07/06 11:56:37;;;;;;;3.40;0.93;;;;;;;19.50;100.00;100312.66;6248094;28;20057;-76
2021/07/06 11:59:38;;;;;;;0.85;0.85;;;;;;;19.55;100.00;100357.53;6248373;28;20408;-76
2021/07/06 12:02:40;;;;;;;3.35;1.20;;;;;;;19.58;100.00;100358.09;6248270;28;20078;-76
2021/07/06 12:05:43;;;;;;;1.30;1.00;;;;;;;19.74;100.00;100357.44;6247984;28;20045;-77
2021/07/06 12:08:47;;;;;;;3.53;1.00;;;;;;;19.79;100.00;100365.00;6247978;28;20527;-76
2021/07/06 12:11:48;;;;;;;2.95;1.02;;;;;;;19.83;100.00;100374.38;6247991;28;20123;-77
2021/07/06 12:14:50;;;;;;;2.30;1.00;;;;;;;19.99;100.00;100380.72;6247820;28;20049;-76
2021/07/06 12:17:52;;;;;;;2.42;1.10;;;;;;;20.54;100.00;100385.06;6247458;28;20159;-76
2021/07/06 12:20:57;;;;;;;1.58;1.00;;;;;;;21.03;99.81;100386.22;6247766;28;20074;-76
2021/07/06 12:24:00;;;;;;;2.58;1.00;;;;;;;20.88;98.63;100381.63;6247630;28;20095;-73
2021/07/06 12:27:01;;;;;;;3.33;1.08;;;;;;;20.83;98.31;100378.59;6247548;28;20416;-76
2021/07/06 12:30:04;;;;;;;2.50;1.25;;;;;;;21.26;99.50;100367.81;6247676;28;20420;-76
2021/07/06 12:33:06;;;;;;;0.85;0.70;;;;;;;21.78;93.65;100369.50;6247531;28;20049;-74
2021/07/06 12:36:09;;;;;;;3.97;0.80;;;;;;;21.89;91.59;100371.91;6247150;28;20127;-74
2021/07/06 12:39:21;;;;;;;1.52;0.65;;;;;;;21.92;91.36;100352.81;6247392;28;20049;-74
2021/07/06 12:42:24;;;;;;;1.05;0.90;;;;;;;22.19;92.91;100357.06;6247459;28;20056;-75
2021/07/06 12:45:33;;;;;;;3.35;1.13;;;;;;;22.15;88.67;100354.88;6247454;28;20060;-75
2021/07/06 12:48:35;;;;;;;1.90;0.82;;;;;;;22.34;89.46;100359.06;6247167;28;20452;-75
2021/07/06 12:51:57;;;;;;;4.35;0.75;;;;;;;22.21;89.44;100335.47;6247376;28;20052;-74
2021/07/06 12:55:07;;;;;;;1.85;0.82;;;;;;;22.31;90.49;100346.03;6247820;28;20099;-74
2021/07/06 12:58:10;;;;;;;1.10;0.80;;;;;;;22.81;87.12;100335.09;6254067;28;20056;-74
2021/07/06 13:01:11;;;;;;;0.98;0.70;;;;;;;23.60;86.38;100335.13;6271682;28;20052;-74
2021/07/06 13:04:13;;;;;;;1.90;0.70;;;;;;;24.26;82.51;100336.38;6250159;28;20497;-74
2021/07/06 13:07:19;;;;;;;0.95;0.77;;;;;;;24.59;79.58;100336.09;6222170;28;20050;-74
2021/07/06 13:10:23;;;;;;;1.40;0.60;;;;;;;24.66;77.65;100342.41;6222620;28;20057;-74
2021/07/06 13:13:26;;;;;;;2.35;1.05;;;;;;;24.22;77.25;100341.25;6225706;28;20042;-73
2021/07/06 13:16:30;;;;;;;1.10;0.60;;;;;;;24.26;77.61;100347.94;6245869;28;20413;-74
2021/07/06 13:19:32;;;;;;;3.95;0.80;;;;;;;24.18;77.80;100348.00;6246572;28;20136;-74
2021/07/06 13:22:34;;;;;;;4.07;3.10;;;;;;;24.02;78.40;100334.69;6246588;28;20053;-74
2021/07/06 13:25:37;;;;;;;0.85;0.73;;;;;;;23.59;81.66;100334.28;6246758;28;20045;-75
2021/07/06 13:28:39;;;;;;;3.00;0.80;;;;;;;23.24;83.75;100338.31;6245715;28;20045;-74
2021/07/06 13:31:42;;;;;;;2.20;0.90;;;;;;;23.02;86.34;100350.63;6244078;28;20064;-74
2021/07/06 13:34:43;;;;;;;2.47;0.98;;;;;;;22.75;85.76;100359.84;6238864;28;20056;-74
2021/07/06 13:37:48;;;;;;;1.60;0.77;;;;;;;22.59;86.47;100384.84;6237566;28;20049;-74
2021/07/06 13:40:52;;;;;;;2.00;0.73;;;;;;;22.79;85.19;100393.34;6245218;28;20056;-74
2021/07/06 13:43:53;;;;;;;0.85;0.70;;;;;;;23.20;79.39;100401.34;6241971;28;20102;-74
2021/07/06 13:46:55;;;;;;;0.85;0.60;;;;;;;23.40;79.12;100397.25;6245932;28;20054;-74
2021/07/06 13:49:56;;;;;;;3.33;0.75;;;;;;;23.38;78.35;100393.91;6243064;28;20050;-74
2021/07/06 13:52:59;;;;;;;1.95;0.75;;;;;;;23.11;77.66;100410.41;6242484;28;20041;-74
2021/07/06 13:56:00;;;;;;;0.98;0.70;;;;;;;23.08;78.05;100400.88;6245677;28;20524;-75
2021/07/06 13:59:02;;;;;;;2.38;1.35;;;;;;;23.13;78.18;100397.69;6245999;28;20436;-74
2021/07/06 14:02:04;;;;;;;2.45;0.80;;;;;;;23.15;78.28;100396.47;6239960;28;20053;-74
2021/07/06 14:05:07;;;;;;;1.88;0.77;;;;;;;23.09;78.25;100401.72;6239253;28;20050;-73